Airport View

Enter AWOS ICAO identifier for current METAR.

ex. KFNL

KSYN 031656Z AUTO 03005KT 10SM CLR 29/17 A3010 RMK AO2 T02900174

3 Jul 2020 17:07

Frequency: 119.35

Phone: 507-664-3806

Other Area AWOS: KLVN - KFBL - KSGS - KOWA

TAF AMD KMSP 031455Z 0315/0418 12003KT P6SM SCT250 FM031800 11006KT P6SM FEW050 FEW250 FM040100 13004KT P6SM SKC